createdAt,value
2023-02-17T00:09:44.476Z,99.78
2023-02-17T00:19:50.182Z,99.75
2023-02-17T00:29:55.794Z,99.84
2023-02-17T00:40:01.576Z,99.94
2023-02-17T00:50:09.285Z,99.98
2023-02-17T01:00:17.642Z,100.00
2023-02-17T01:10:23.503Z,100.00
2023-02-17T01:20:29.219Z,100.00
2023-02-17T01:30:35.718Z,100.00
2023-02-17T01:40:49.450Z,100.00
2023-02-17T01:51:00.471Z,100.00
2023-02-17T02:01:08.252Z,100.00
2023-02-17T02:11:13.911Z,100.00
2023-02-17T02:21:49.994Z,100.00
2023-02-17T02:32:02.518Z,100.00
2023-02-17T02:42:12.169Z,100.00
2023-02-17T02:52:26.959Z,100.00
2023-02-17T03:02:39.521Z,100.00
2023-02-17T03:12:45.434Z,100.00
2023-02-17T03:22:51.866Z,100.00
2023-02-17T03:32:57.962Z,100.00
2023-02-17T03:43:03.716Z,100.00
2023-02-17T03:53:09.571Z,100.00
2023-02-17T04:03:15.354Z,100.00
2023-02-17T04:13:21.053Z,100.00
2023-02-17T04:23:26.820Z,100.00
2023-02-17T04:33:32.973Z,100.00
2023-02-17T04:43:39.009Z,100.00
2023-02-17T04:53:44.766Z,100.00
2023-02-17T05:03:50.529Z,99.89
2023-02-17T05:13:56.104Z,99.73
2023-02-17T05:24:02.006Z,99.47
2023-02-17T05:34:07.774Z,99.03
2023-02-17T05:44:13.822Z,98.79
2023-02-17T05:54:19.573Z,98.85
2023-02-17T06:04:25.637Z,98.84
2023-02-17T06:14:31.836Z,98.90
2023-02-17T06:24:37.518Z,98.75
2023-02-17T06:34:43.276Z,98.80
2023-02-17T06:44:49.401Z,98.58
2023-02-17T06:54:55.263Z,98.52
2023-02-17T07:05:00.912Z,98.23
2023-02-17T07:15:09.443Z,98.62
2023-02-17T07:25:17.692Z,98.75
2023-02-17T07:35:23.416Z,98.80
2023-02-17T07:45:29.196Z,98.90
2023-02-17T07:55:34.831Z,99.11
2023-02-17T08:05:42.663Z,99.33
2023-02-17T08:15:48.372Z,98.91
2023-02-17T08:25:54.161Z,99.06
2023-02-17T08:36:00.171Z,99.84
2023-02-17T08:46:10.278Z,100.00
2023-02-17T08:56:15.982Z,100.00
2023-02-17T09:06:22.397Z,100.00
2023-02-17T09:16:28.242Z,100.00
2023-02-17T09:26:35.109Z,100.00
2023-02-17T09:36:43.382Z,100.00
2023-02-17T09:47:02.206Z,100.00
2023-02-17T09:57:13.963Z,100.00
2023-02-17T10:07:24.105Z,100.00
2023-02-17T10:17:37.777Z,100.00
2023-02-17T10:27:47.271Z,100.00
2023-02-17T10:37:59.446Z,100.00
2023-02-17T10:48:09.218Z,100.00
2023-02-17T10:58:21.195Z,100.00
2023-02-17T11:08:38.402Z,100.00
2023-02-17T11:18:50.896Z,100.00
2023-02-17T11:28:56.620Z,100.00
2023-02-17T11:39:14.639Z,100.00
2023-02-17T11:49:43.971Z,100.00
2023-02-17T12:00:05.756Z,100.00
2023-02-17T12:10:21.897Z,100.00
2023-02-17T12:20:45.655Z,100.00
2023-02-17T12:31:02.564Z,100.00
2023-02-17T12:41:11.553Z,100.00
2023-02-17T12:51:23.373Z,100.00
2023-02-17T13:01:33.787Z,100.00
2023-02-17T13:11:39.871Z,100.00
2023-02-17T13:21:55.979Z,100.00
2023-02-17T13:32:04.689Z,100.00
2023-02-17T13:42:39.132Z,100.00
2023-02-17T13:52:46.245Z,100.00
2023-02-17T14:02:55.360Z,100.00
2023-02-17T14:13:01.685Z,100.00
2023-02-17T14:23:11.709Z,100.00
2023-02-17T14:33:24.786Z,100.00
2023-02-17T14:43:31.091Z,100.00
2023-02-17T14:53:38.975Z,100.00
2023-02-17T15:03:45.539Z,100.00
2023-02-17T15:13:51.952Z,100.00
2023-02-17T15:23:59.742Z,100.00
2023-02-17T15:34:07.863Z,100.00
2023-02-17T15:44:17.928Z,100.00
2023-02-17T15:54:23.569Z,100.00
2023-02-17T16:04:32.234Z,100.00
2023-02-17T16:14:40.649Z,100.00
2023-02-17T16:24:46.373Z,100.00
2023-02-17T16:34:52.761Z,100.00
2023-02-17T16:44:58.409Z,100.00
2023-02-17T16:55:04.133Z,100.00
2023-02-17T17:05:11.412Z,100.00
2023-02-17T17:15:18.386Z,100.00
2023-02-17T17:25:24.274Z,100.00
2023-02-17T17:35:30.690Z,100.00
2023-02-17T17:45:36.700Z,100.00
2023-02-17T17:55:42.442Z,100.00
2023-02-17T18:05:48.692Z,100.00
2023-02-17T18:15:54.789Z,100.00
2023-02-17T18:26:00.493Z,100.00
2023-02-17T18:36:11.834Z,100.00
2023-02-17T18:46:17.610Z,100.00
2023-02-17T18:56:25.604Z,100.00
2023-02-17T19:06:34.755Z,100.00
2023-02-17T19:16:41.046Z,100.00
2023-02-17T19:26:46.973Z,100.00
2023-02-17T19:36:52.808Z,100.00
2023-02-17T19:46:58.880Z,100.00
2023-02-17T19:57:08.819Z,100.00
2023-02-17T20:07:14.713Z,100.00
2023-02-17T20:17:20.855Z,100.00
2023-02-17T20:27:26.680Z,100.00
2023-02-17T20:37:32.377Z,100.00
2023-02-17T20:47:38.129Z,100.00
2023-02-17T20:57:44.227Z,100.00
2023-02-17T21:07:50.433Z,100.00
2023-02-17T21:17:56.140Z,100.00
2023-02-17T21:28:02.072Z,100.00
2023-02-17T21:38:07.957Z,100.00
2023-02-17T21:48:13.851Z,100.00
2023-02-17T21:58:19.763Z,100.00
2023-02-17T22:08:25.794Z,100.00
2023-02-17T22:18:31.538Z,100.00
2023-02-17T22:28:38.283Z,100.00
2023-02-17T22:38:44.475Z,99.14
2023-02-17T22:48:52.282Z,97.72
2023-02-17T22:59:00.959Z,97.07
2023-02-17T23:09:07.733Z,97.33
2023-02-17T23:19:17.075Z,97.48
2023-02-17T23:29:23.452Z,96.91
2023-02-17T23:39:29.278Z,92.97
2023-02-17T23:49:35.031Z,89.91
2023-02-17T23:59:40.678Z,87.01
